Nong Khai, Thailand
Current Conditions -  °F | °C
As of 3:00 PM on Wednesday 26 Nov 2014 (Local Time) from VLVT Reporting Station
Scattered Clouds Scattered Clouds  
Wind Chill: 90°   Ceiling: Unl
Heat Index: 96°   Visibility: 6mi
Dew Point: 72°   Wind: 2mph
Humidity: 55%   Direction: 180°S
Pressure: 29.74"   Gusts: NA
Location:  17.88°N, 102.74°E
Report Text: VLVT 260800Z 18002KT 9999 SCT020 32/22 Q1007 NOSIG
Loading
Personal Weather Stations






























Interactive Weather Map New forecast layout! Learn more

10-Day Weather Forecast

Advertisements
Track Severe Weather on mobile